sensor_id;sensor_type;location;lat;lon;timestamp;P1;durP1;ratioP1;P2;durP2;ratioP2
12076;SDS011;12420;42.676;23.262;2023-06-22T00:01:13;10.67;;;9.77;;
12076;SDS011;12420;42.676;23.262;2023-06-22T00:03:40;10.33;;;9.23;;
12076;SDS011;12420;42.676;23.262;2023-06-22T00:06:06;9.77;;;8.87;;
12076;SDS011;12420;42.676;23.262;2023-06-22T00:08:33;10.10;;;9.10;;
12076;SDS011;12420;42.676;23.262;2023-06-22T00:11:00;11.30;;;9.63;;
12076;SDS011;12420;42.676;23.262;2023-06-22T00:13:27;10.80;;;9.53;;
12076;SDS011;12420;42.676;23.262;2023-06-22T00:15:56;10.47;;;9.50;;
12076;SDS011;12420;42.676;23.262;2023-06-22T00:18:23;9.57;;;8.67;;
12076;SDS011;12420;42.676;23.262;2023-06-22T00:20:53;9.60;;;8.77;;
12076;SDS011;12420;42.676;23.262;2023-06-22T00:23:23;9.43;;;8.37;;
12076;SDS011;12420;42.676;23.262;2023-06-22T00:25:50;8.97;;;8.13;;
12076;SDS011;12420;42.676;23.262;2023-06-22T00:28:17;7.90;;;7.30;;
12076;SDS011;12420;42.676;23.262;2023-06-22T00:30:44;8.20;;;7.47;;
12076;SDS011;12420;42.676;23.262;2023-06-22T00:33:14;8.40;;;7.60;;
12076;SDS011;12420;42.676;23.262;2023-06-22T00:35:41;7.87;;;7.07;;
12076;SDS011;12420;42.676;23.262;2023-06-22T00:38:08;8.23;;;7.43;;
12076;SDS011;12420;42.676;23.262;2023-06-22T00:40:37;8.10;;;7.10;;
12076;SDS011;12420;42.676;23.262;2023-06-22T00:43:05;8.87;;;7.20;;
12076;SDS011;12420;42.676;23.262;2023-06-22T00:45:38;7.60;;;7.00;;
12076;SDS011;12420;42.676;23.262;2023-06-22T00:48:07;7.53;;;6.67;;
12076;SDS011;12420;42.676;23.262;2023-06-22T00:50:36;7.47;;;6.77;;
12076;SDS011;12420;42.676;23.262;2023-06-22T00:53:07;7.63;;;6.63;;
12076;SDS011;12420;42.676;23.262;2023-06-22T00:55:48;7.30;;;6.70;;
12076;SDS011;12420;42.676;23.262;2023-06-22T00:58:17;7.70;;;7.00;;
12076;SDS011;12420;42.676;23.262;2023-06-22T01:00:47;8.00;;;7.30;;
12076;SDS011;12420;42.676;23.262;2023-06-22T01:03:14;8.17;;;7.30;;
12076;SDS011;12420;42.676;23.262;2023-06-22T01:05:43;7.37;;;6.70;;
12076;SDS011;12420;42.676;23.262;2023-06-22T01:08:16;7.50;;;6.90;;
12076;SDS011;12420;42.676;23.262;2023-06-22T01:10:53;8.07;;;7.47;;
12076;SDS011;12420;42.676;23.262;2023-06-22T01:13:32;8.33;;;7.53;;
12076;SDS011;12420;42.676;23.262;2023-06-22T01:16:07;8.37;;;7.40;;
12076;SDS011;12420;42.676;23.262;2023-06-22T01:18:42;9.30;;;8.40;;
12076;SDS011;12420;42.676;23.262;2023-06-22T01:21:12;9.13;;;8.23;;
12076;SDS011;12420;42.676;23.262;2023-06-22T01:23:58;8.97;;;8.17;;
12076;SDS011;12420;42.676;23.262;2023-06-22T01:26:42;8.90;;;7.67;;
12076;SDS011;12420;42.676;23.262;2023-06-22T01:29:21;8.37;;;7.63;;
12076;SDS011;12420;42.676;23.262;2023-06-22T01:31:49;8.90;;;7.97;;
12076;SDS011;12420;42.676;23.262;2023-06-22T01:34:16;8.70;;;7.90;;
12076;SDS011;12420;42.676;23.262;2023-06-22T01:36:45;8.70;;;7.63;;
12076;SDS011;12420;42.676;23.262;2023-06-22T01:39:13;9.17;;;7.70;;
12076;SDS011;12420;42.676;23.262;2023-06-22T01:41:41;8.30;;;7.60;;
12076;SDS011;12420;42.676;23.262;2023-06-22T01:44:09;9.73;;;7.73;;
12076;SDS011;12420;42.676;23.262;2023-06-22T01:46:43;8.50;;;7.60;;
12076;SDS011;12420;42.676;23.262;2023-06-22T01:49:11;8.07;;;7.40;;
12076;SDS011;12420;42.676;23.262;2023-06-22T01:51:42;10.23;;;7.60;;
12076;SDS011;12420;42.676;23.262;2023-06-22T01:54:11;8.60;;;7.70;;
12076;SDS011;12420;42.676;23.262;2023-06-22T01:56:38;8.00;;;7.20;;
12076;SDS011;12420;42.676;23.262;2023-06-22T01:59:07;7.40;;;6.80;;
12076;SDS011;12420;42.676;23.262;2023-06-22T02:01:41;7.87;;;7.27;;
12076;SDS011;12420;42.676;23.262;2023-06-22T02:04:11;7.33;;;6.63;;
12076;SDS011;12420;42.676;23.262;2023-06-22T02:06:43;9.60;;;7.50;;
12076;SDS011;12420;42.676;23.262;2023-06-22T02:09:14;8.33;;;7.53;;
12076;SDS011;12420;42.676;23.262;2023-06-22T02:11:43;7.97;;;7.17;;
12076;SDS011;12420;42.676;23.262;2023-06-22T02:14:12;8.27;;;7.47;;
12076;SDS011;12420;42.676;23.262;2023-06-22T02:16:41;8.50;;;7.60;;
12076;SDS011;12420;42.676;23.262;2023-06-22T02:19:09;9.73;;;7.53;;
12076;SDS011;12420;42.676;23.262;2023-06-22T02:21:36;8.90;;;8.00;;
12076;SDS011;12420;42.676;23.262;2023-06-22T02:24:03;8.90;;;7.97;;
12076;SDS011;12420;42.676;23.262;2023-06-22T02:26:31;9.97;;;7.53;;
12076;SDS011;12420;42.676;23.262;2023-06-22T02:28:59;8.60;;;7.67;;
12076;SDS011;12420;42.676;23.262;2023-06-22T02:31:26;9.53;;;8.33;;
12076;SDS011;12420;42.676;23.262;2023-06-22T02:33:57;9.20;;;8.30;;
12076;SDS011;12420;42.676;23.262;2023-06-22T02:36:24;10.97;;;8.97;;
12076;SDS011;12420;42.676;23.262;2023-06-22T02:38:52;11.17;;;9.10;;
12076;SDS011;12420;42.676;23.262;2023-06-22T02:41:21;11.17;;;9.10;;
12076;SDS011;12420;42.676;23.262;2023-06-22T02:43:48;10.27;;;8.97;;
12076;SDS011;12420;42.676;23.262;2023-06-22T02:46:15;13.90;;;9.73;;
12076;SDS011;12420;42.676;23.262;2023-06-22T02:48:43;9.80;;;9.00;;
12076;SDS011;12420;42.676;23.262;2023-06-22T02:51:11;10.73;;;9.27;;
12076;SDS011;12420;42.676;23.262;2023-06-22T02:53:40;10.27;;;9.27;;
12076;SDS011;12420;42.676;23.262;2023-06-22T02:56:09;11.90;;;10.82;;
12076;SDS011;12420;42.676;23.262;2023-06-22T02:58:38;10.40;;;9.50;;
12076;SDS011;12420;42.676;23.262;2023-06-22T03:01:05;12.27;;;9.50;;
12076;SDS011;12420;42.676;23.262;2023-06-22T03:03:32;11.33;;;9.37;;
12076;SDS011;12420;42.676;23.262;2023-06-22T03:05:58;10.67;;;9.67;;
12076;SDS011;12420;42.676;23.262;2023-06-22T03:08:29;9.50;;;8.60;;
12076;SDS011;12420;42.676;23.262;2023-06-22T03:10:55;9.53;;;8.53;;
12076;SDS011;12420;42.676;23.262;2023-06-22T03:13:22;10.00;;;9.00;;
12076;SDS011;12420;42.676;23.262;2023-06-22T03:15:49;10.83;;;8.83;;
12076;SDS011;12420;42.676;23.262;2023-06-22T03:18:17;10.13;;;8.53;;
12076;SDS011;12420;42.676;23.262;2023-06-22T03:20:44;9.17;;;8.37;;
12076;SDS011;12420;42.676;23.262;2023-06-22T03:23:12;10.93;;;9.83;;
12076;SDS011;12420;42.676;23.262;2023-06-22T03:25:45;10.17;;;9.17;;
12076;SDS011;12420;42.676;23.262;2023-06-22T03:28:12;14.37;;;9.70;;
12076;SDS011;12420;42.676;23.262;2023-06-22T03:30:45;12.47;;;9.10;;
12076;SDS011;12420;42.676;23.262;2023-06-22T03:33:16;20.03;;;8.53;;
12076;SDS011;12420;42.676;23.262;2023-06-22T03:35:43;12.73;;;9.40;;
12076;SDS011;12420;42.676;23.262;2023-06-22T03:38:12;9.87;;;8.87;;
12076;SDS011;12420;42.676;23.262;2023-06-22T03:40:39;12.33;;;8.93;;
12076;SDS011;12420;42.676;23.262;2023-06-22T03:43:08;13.27;;;9.07;;
12076;SDS011;12420;42.676;23.262;2023-06-22T03:45:35;17.00;;;9.93;;
12076;SDS011;12420;42.676;23.262;2023-06-22T03:48:03;12.57;;;9.70;;
12076;SDS011;12420;42.676;23.262;2023-06-22T03:50:40;16.53;;;9.43;;
12076;SDS011;12420;42.676;23.262;2023-06-22T03:53:09;47.87;;;11.17;;
12076;SDS011;12420;42.676;23.262;2023-06-22T03:55:40;41.50;;;12.10;;
12076;SDS011;12420;42.676;23.262;2023-06-22T03:58:15;23.20;;;11.47;;
12076;SDS011;12420;42.676;23.262;2023-06-22T04:00:46;31.30;;;11.63;;
12076;SDS011;12420;42.676;23.262;2023-06-22T04:03:13;49.17;;;24.53;;
12076;SDS011;12420;42.676;23.262;2023-06-22T04:05:44;20.60;;;11.30;;
12076;SDS011;12420;42.676;23.262;2023-06-22T04:08:13;21.30;;;13.40;;
12076;SDS011;12420;42.676;23.262;2023-06-22T04:10:42;28.20;;;13.90;;
12076;SDS011;12420;42.676;23.262;2023-06-22T04:13:09;22.87;;;12.27;;
12076;SDS011;12420;42.676;23.262;2023-06-22T04:15:37;22.30;;;11.90;;
12076;SDS011;12420;42.676;23.262;2023-06-22T04:18:04;16.17;;;11.97;;
12076;SDS011;12420;42.676;23.262;2023-06-22T04:20:31;14.03;;;12.07;;
12076;SDS011;12420;42.676;23.262;2023-06-22T04:22:58;16.67;;;12.20;;
12076;SDS011;12420;42.676;23.262;2023-06-22T04:25:26;14.30;;;11.00;;
12076;SDS011;12420;42.676;23.262;2023-06-22T04:27:53;18.03;;;12.00;;
12076;SDS011;12420;42.676;23.262;2023-06-22T04:30:20;15.13;;;11.40;;
12076;SDS011;12420;42.676;23.262;2023-06-22T04:32:48;19.50;;;12.13;;
12076;SDS011;12420;42.676;23.262;2023-06-22T04:35:22;15.93;;;11.93;;
12076;SDS011;12420;42.676;23.262;2023-06-22T04:37:49;14.40;;;11.30;;
12076;SDS011;12420;42.676;23.262;2023-06-22T04:40:20;17.57;;;11.03;;
12076;SDS011;12420;42.676;23.262;2023-06-22T04:42:47;14.23;;;10.87;;
12076;SDS011;12420;42.676;23.262;2023-06-22T04:45:19;16.97;;;10.97;;
12076;SDS011;12420;42.676;23.262;2023-06-22T04:47:50;13.77;;;10.80;;
12076;SDS011;12420;42.676;23.262;2023-06-22T04:50:17;18.90;;;11.90;;
12076;SDS011;12420;42.676;23.262;2023-06-22T04:52:47;17.20;;;11.47;;
12076;SDS011;12420;42.676;23.262;2023-06-22T04:55:14;14.50;;;11.53;;
12076;SDS011;12420;42.676;23.262;2023-06-22T04:57:43;15.00;;;12.00;;
12076;SDS011;12420;42.676;23.262;2023-06-22T05:00:14;12.90;;;11.47;;
12076;SDS011;12420;42.676;23.262;2023-06-22T05:02:42;13.17;;;11.30;;
12076;SDS011;12420;42.676;23.262;2023-06-22T05:05:11;14.83;;;10.97;;
12076;SDS011;12420;42.676;23.262;2023-06-22T05:07:40;14.30;;;10.43;;
12076;SDS011;12420;42.676;23.262;2023-06-22T05:10:09;14.77;;;11.00;;
12076;SDS011;12420;42.676;23.262;2023-06-22T05:12:37;12.48;;;11.02;;
12076;SDS011;12420;42.676;23.262;2023-06-22T05:15:05;12.73;;;11.47;;
12076;SDS011;12420;42.676;23.262;2023-06-22T05:17:33;16.83;;;11.43;;
12076;SDS011;12420;42.676;23.262;2023-06-22T05:20:00;12.52;;;11.23;;
12076;SDS011;12420;42.676;23.262;2023-06-22T05:22:29;16.83;;;11.40;;
12076;SDS011;12420;42.676;23.262;2023-06-22T05:24:56;19.98;;;10.90;;
12076;SDS011;12420;42.676;23.262;2023-06-22T05:27:23;16.52;;;11.25;;
12076;SDS011;12420;42.676;23.262;2023-06-22T05:29:50;17.00;;;11.30;;
12076;SDS011;12420;42.676;23.262;2023-06-22T05:32:18;13.15;;;9.77;;
12076;SDS011;12420;42.676;23.262;2023-06-22T05:34:45;13.98;;;10.10;;
12076;SDS011;12420;42.676;23.262;2023-06-22T05:37:14;9.95;;;9.05;;
12076;SDS011;12420;42.676;23.262;2023-06-22T05:39:42;11.93;;;10.27;;
12076;SDS011;12420;42.676;23.262;2023-06-22T05:42:09;11.00;;;9.97;;
12076;SDS011;12420;42.676;23.262;2023-06-22T05:44:36;11.25;;;10.10;;
12076;SDS011;12420;42.676;23.262;2023-06-22T05:47:04;10.52;;;9.05;;
12076;SDS011;12420;42.676;23.262;2023-06-22T05:49:31;10.82;;;9.77;;
12076;SDS011;12420;42.676;23.262;2023-06-22T05:51:58;15.90;;;11.85;;
12076;SDS011;12420;42.676;23.262;2023-06-22T05:54:27;16.52;;;12.43;;
12076;SDS011;12420;42.676;23.262;2023-06-22T05:56:55;13.88;;;11.90;;
12076;SDS011;12420;42.676;23.262;2023-06-22T05:59:22;18.38;;;12.90;;
12076;SDS011;12420;42.676;23.262;2023-06-22T06:01:49;13.23;;;10.70;;
12076;SDS011;12420;42.676;23.262;2023-06-22T06:04:16;16.25;;;11.52;;
12076;SDS011;12420;42.676;23.262;2023-06-22T06:06:43;14.32;;;12.05;;
12076;SDS011;12420;42.676;23.262;2023-06-22T06:09:12;15.73;;;11.50;;
12076;SDS011;12420;42.676;23.262;2023-06-22T06:11:39;12.93;;;11.38;;
12076;SDS011;12420;42.676;23.262;2023-06-22T06:17:03;15.82;;;12.05;;
12076;SDS011;12420;42.676;23.262;2023-06-22T06:19:33;13.52;;;12.10;;
12076;SDS011;12420;42.676;23.262;2023-06-22T06:22:03;19.60;;;11.50;;
12076;SDS011;12420;42.676;23.262;2023-06-22T06:24:30;13.43;;;12.02;;
12076;SDS011;12420;42.676;23.262;2023-06-22T06:26:57;13.93;;;11.02;;
12076;SDS011;12420;42.676;23.262;2023-06-22T06:29:25;11.80;;;10.63;;
12076;SDS011;12420;42.676;23.262;2023-06-22T06:31:52;18.55;;;10.43;;
12076;SDS011;12420;42.676;23.262;2023-06-22T06:34:21;16.95;;;11.25;;
12076;SDS011;12420;42.676;23.262;2023-06-22T06:36:52;12.38;;;10.57;;
12076;SDS011;12420;42.676;23.262;2023-06-22T06:39:19;12.35;;;11.00;;
12076;SDS011;12420;42.676;23.262;2023-06-22T06:41:49;18.73;;;10.52;;
12076;SDS011;12420;42.676;23.262;2023-06-22T06:44:19;12.60;;;11.15;;
12076;SDS011;12420;42.676;23.262;2023-06-22T06:46:50;15.25;;;10.75;;
12076;SDS011;12420;42.676;23.262;2023-06-22T06:49:16;15.48;;;10.70;;
12076;SDS011;12420;42.676;23.262;2023-06-22T06:51:43;12.48;;;10.10;;
12076;SDS011;12420;42.676;23.262;2023-06-22T06:54:11;11.15;;;9.93;;
12076;SDS011;12420;42.676;23.262;2023-06-22T06:56:38;17.42;;;10.98;;
12076;SDS011;12420;42.676;23.262;2023-06-22T06:59:05;12.55;;;10.20;;
12076;SDS011;12420;42.676;23.262;2023-06-22T07:01:34;11.73;;;10.30;;
12076;SDS011;12420;42.676;23.262;2023-06-22T07:04:03;11.13;;;9.90;;
12076;SDS011;12420;42.676;23.262;2023-06-22T07:06:30;10.68;;;9.68;;
12076;SDS011;12420;42.676;23.262;2023-06-22T07:08:58;12.63;;;9.25;;
12076;SDS011;12420;42.676;23.262;2023-06-22T07:11:26;14.02;;;10.00;;
12076;SDS011;12420;42.676;23.262;2023-06-22T07:13:53;13.57;;;10.70;;
12076;SDS011;12420;42.676;23.262;2023-06-22T07:16:20;14.63;;;10.77;;
12076;SDS011;12420;42.676;23.262;2023-06-22T07:18:48;13.02;;;11.73;;
12076;SDS011;12420;42.676;23.262;2023-06-22T07:21:16;12.18;;;10.88;;
12076;SDS011;12420;42.676;23.262;2023-06-22T07:23:43;12.35;;;11.15;;
12076;SDS011;12420;42.676;23.262;2023-06-22T07:26:10;17.63;;;10.68;;
12076;SDS011;12420;42.676;23.262;2023-06-22T07:28:38;11.70;;;10.15;;
12076;SDS011;12420;42.676;23.262;2023-06-22T07:31:06;11.50;;;10.15;;
12076;SDS011;12420;42.676;23.262;2023-06-22T07:33:33;12.82;;;9.02;;
12076;SDS011;12420;42.676;23.262;2023-06-22T07:36:00;11.23;;;9.93;;
12076;SDS011;12420;42.676;23.262;2023-06-22T07:38:29;11.98;;;10.38;;
12076;SDS011;12420;42.676;23.262;2023-06-22T07:40:56;12.65;;;11.00;;
12076;SDS011;12420;42.676;23.262;2023-06-22T07:43:24;12.45;;;11.27;;
12076;SDS011;12420;42.676;23.262;2023-06-22T07:45:51;15.45;;;11.27;;
12076;SDS011;12420;42.676;23.262;2023-06-22T07:48:22;18.05;;;11.45;;
12076;SDS011;12420;42.676;23.262;2023-06-22T07:50:49;13.30;;;11.55;;
12076;SDS011;12420;42.676;23.262;2023-06-22T07:53:18;12.23;;;10.70;;
12076;SDS011;12420;42.676;23.262;2023-06-22T07:55:49;11.57;;;10.43;;
12076;SDS011;12420;42.676;23.262;2023-06-22T07:58:15;11.13;;;10.02;;
12076;SDS011;12420;42.676;23.262;2023-06-22T08:00:44;21.35;;;12.05;;
12076;SDS011;12420;42.676;23.262;2023-06-22T08:03:11;13.15;;;10.43;;
12076;SDS011;12420;42.676;23.262;2023-06-22T08:05:38;12.10;;;10.90;;
12076;SDS011;12420;42.676;23.262;2023-06-22T08:08:05;11.25;;;10.35;;
12076;SDS011;12420;42.676;23.262;2023-06-22T08:10:32;13.55;;;10.80;;
12076;SDS011;12420;42.676;23.262;2023-06-22T08:13:01;15.82;;;11.30;;
12076;SDS011;12420;42.676;23.262;2023-06-22T08:15:27;14.90;;;9.73;;
12076;SDS011;12420;42.676;23.262;2023-06-22T08:17:54;12.85;;;10.18;;
12076;SDS011;12420;42.676;23.262;2023-06-22T08:20:23;12.38;;;10.88;;
12076;SDS011;12420;42.676;23.262;2023-06-22T08:22:51;11.07;;;10.07;;
12076;SDS011;12420;42.676;23.262;2023-06-22T08:25:21;11.10;;;10.20;;
12076;SDS011;12420;42.676;23.262;2023-06-22T08:27:48;11.60;;;10.50;;
12076;SDS011;12420;42.676;23.262;2023-06-22T08:30:16;12.77;;;10.40;;
12076;SDS011;12420;42.676;23.262;2023-06-22T08:32:43;14.07;;;10.30;;
12076;SDS011;12420;42.676;23.262;2023-06-22T08:35:12;13.02;;;10.43;;
12076;SDS011;12420;42.676;23.262;2023-06-22T08:37:41;11.65;;;10.43;;
12076;SDS011;12420;42.676;23.262;2023-06-22T08:40:09;11.13;;;9.75;;
12076;SDS011;12420;42.676;23.262;2023-06-22T08:42:36;11.93;;;10.50;;
12076;SDS011;12420;42.676;23.262;2023-06-22T08:45:05;11.63;;;9.75;;
12076;SDS011;12420;42.676;23.262;2023-06-22T08:47:34;10.95;;;9.98;;
12076;SDS011;12420;42.676;23.262;2023-06-22T08:50:01;11.98;;;9.65;;
12076;SDS011;12420;42.676;23.262;2023-06-22T08:52:29;10.65;;;9.75;;
12076;SDS011;12420;42.676;23.262;2023-06-22T08:54:56;10.48;;;9.43;;
12076;SDS011;12420;42.676;23.262;2023-06-22T08:57:23;9.38;;;8.57;;
12076;SDS011;12420;42.676;23.262;2023-06-22T08:59:54;11.63;;;9.80;;
12076;SDS011;12420;42.676;23.262;2023-06-22T09:02:23;9.85;;;8.90;;
12076;SDS011;12420;42.676;23.262;2023-06-22T09:04:51;9.10;;;8.50;;
12076;SDS011;12420;42.676;23.262;2023-06-22T09:07:20;9.18;;;8.38;;
12076;SDS011;12420;42.676;23.262;2023-06-22T09:09:48;10.32;;;8.68;;
12076;SDS011;12420;42.676;23.262;2023-06-22T09:12:15;11.73;;;8.05;;
12076;SDS011;12420;42.676;23.262;2023-06-22T09:14:45;9.30;;;7.55;;
12076;SDS011;12420;42.676;23.262;2023-06-22T09:17:12;11.20;;;8.52;;
12076;SDS011;12420;42.676;23.262;2023-06-22T09:19:39;8.48;;;7.78;;
12076;SDS011;12420;42.676;23.262;2023-06-22T09:22:07;8.90;;;7.93;;
12076;SDS011;12420;42.676;23.262;2023-06-22T09:24:35;9.05;;;8.20;;
12076;SDS011;12420;42.676;23.262;2023-06-22T09:27:02;8.25;;;7.60;;
12076;SDS011;12420;42.676;23.262;2023-06-22T09:29:29;8.10;;;7.50;;
12076;SDS011;12420;42.676;23.262;2023-06-22T09:31:58;7.75;;;7.15;;
12076;SDS011;12420;42.676;23.262;2023-06-22T09:34:25;12.23;;;7.68;;
12076;SDS011;12420;42.676;23.262;2023-06-22T09:36:52;9.18;;;7.40;;
12076;SDS011;12420;42.676;23.262;2023-06-22T09:39:21;17.08;;;7.63;;
12076;SDS011;12420;42.676;23.262;2023-06-22T09:41:48;20.20;;;8.25;;
12076;SDS011;12420;42.676;23.262;2023-06-22T09:44:15;8.18;;;7.35;;
12076;SDS011;12420;42.676;23.262;2023-06-22T09:46:42;9.05;;;7.55;;
12076;SDS011;12420;42.676;23.262;2023-06-22T09:49:08;8.70;;;8.00;;
12076;SDS011;12420;42.676;23.262;2023-06-22T09:51:35;8.40;;;7.70;;
12076;SDS011;12420;42.676;23.262;2023-06-22T09:54:05;13.63;;;7.63;;
12076;SDS011;12420;42.676;23.262;2023-06-22T09:56:33;9.07;;;7.10;;
12076;SDS011;12420;42.676;23.262;2023-06-22T09:59:00;9.13;;;7.47;;
12076;SDS011;12420;42.676;23.262;2023-06-22T10:01:27;8.07;;;7.28;;
12076;SDS011;12420;42.676;23.262;2023-06-22T10:03:55;7.93;;;7.22;;
12076;SDS011;12420;42.676;23.262;2023-06-22T10:06:22;9.52;;;7.05;;
12076;SDS011;12420;42.676;23.262;2023-06-22T10:08:50;8.20;;;7.60;;
12076;SDS011;12420;42.676;23.262;2023-06-22T10:11:17;9.52;;;7.93;;
12076;SDS011;12420;42.676;23.262;2023-06-22T10:13:45;8.30;;;7.65;;
12076;SDS011;12420;42.676;23.262;2023-06-22T10:16:12;7.75;;;7.25;;
12076;SDS011;12420;42.676;23.262;2023-06-22T10:18:39;8.77;;;8.02;;
12076;SDS011;12420;42.676;23.262;2023-06-22T10:21:06;9.02;;;7.43;;
12076;SDS011;12420;42.676;23.262;2023-06-22T10:23:32;8.55;;;7.85;;
12076;SDS011;12420;42.676;23.262;2023-06-22T10:25:59;9.35;;;8.02;;
12076;SDS011;12420;42.676;23.262;2023-06-22T10:28:26;8.70;;;7.90;;
12076;SDS011;12420;42.676;23.262;2023-06-22T10:30:55;8.75;;;8.00;;
12076;SDS011;12420;42.676;23.262;2023-06-22T10:33:22;8.90;;;8.10;;
12076;SDS011;12420;42.676;23.262;2023-06-22T10:35:48;21.98;;;9.15;;
12076;SDS011;12420;42.676;23.262;2023-06-22T10:38:16;12.10;;;8.52;;
12076;SDS011;12420;42.676;23.262;2023-06-22T10:40:43;9.07;;;8.27;;
12076;SDS011;12420;42.676;23.262;2023-06-22T10:43:10;8.52;;;7.82;;
12076;SDS011;12420;42.676;23.262;2023-06-22T10:45:37;9.90;;;8.90;;
12076;SDS011;12420;42.676;23.262;2023-06-22T10:48:05;8.20;;;7.60;;
12076;SDS011;12420;42.676;23.262;2023-06-22T10:50:32;9.60;;;8.70;;
12076;SDS011;12420;42.676;23.262;2023-06-22T10:52:59;10.65;;;8.32;;
12076;SDS011;12420;42.676;23.262;2023-06-22T10:55:26;11.18;;;8.05;;
12076;SDS011;12420;42.676;23.262;2023-06-22T10:57:52;8.80;;;8.18;;
12076;SDS011;12420;42.676;23.262;2023-06-22T11:00:19;8.93;;;8.18;;
12076;SDS011;12420;42.676;23.262;2023-06-22T11:02:47;9.05;;;8.25;;
12076;SDS011;12420;42.676;23.262;2023-06-22T11:05:15;8.30;;;7.65;;
12076;SDS011;12420;42.676;23.262;2023-06-22T11:07:42;8.77;;;8.07;;
12076;SDS011;12420;42.676;23.262;2023-06-22T11:10:09;8.73;;;7.93;;
12076;SDS011;12420;42.676;23.262;2023-06-22T11:12:36;8.73;;;7.93;;
12076;SDS011;12420;42.676;23.262;2023-06-22T11:15:03;8.57;;;7.97;;
12076;SDS011;12420;42.676;23.262;2023-06-22T11:17:31;9.38;;;8.30;;
12076;SDS011;12420;42.676;23.262;2023-06-22T11:19:57;8.50;;;7.82;;
12076;SDS011;12420;42.676;23.262;2023-06-22T11:22:26;8.98;;;8.32;;
12076;SDS011;12420;42.676;23.262;2023-06-22T11:24:58;8.90;;;7.80;;
12076;SDS011;12420;42.676;23.262;2023-06-22T11:34:09;9.88;;;8.98;;
12076;SDS011;12420;42.676;23.262;2023-06-22T11:36:37;9.85;;;9.00;;
12076;SDS011;12420;42.676;23.262;2023-06-22T11:39:08;9.30;;;8.50;;
12076;SDS011;12420;42.676;23.262;2023-06-22T11:41:36;9.02;;;7.93;;
12076;SDS011;12420;42.676;23.262;2023-06-22T11:44:02;8.57;;;7.95;;
12076;SDS011;12420;42.676;23.262;2023-06-22T11:46:30;15.80;;;8.77;;
12076;SDS011;12420;42.676;23.262;2023-06-22T11:48:57;13.07;;;9.85;;
12076;SDS011;12420;42.676;23.262;2023-06-22T11:51:24;9.85;;;8.85;;
12076;SDS011;12420;42.676;23.262;2023-06-22T11:53:51;10.13;;;9.15;;
12076;SDS011;12420;42.676;23.262;2023-06-22T11:56:19;9.65;;;8.73;;
12076;SDS011;12420;42.676;23.262;2023-06-22T11:58:46;9.25;;;8.35;;
12076;SDS011;12420;42.676;23.262;2023-06-22T12:01:12;9.20;;;8.40;;
12076;SDS011;12420;42.676;23.262;2023-06-22T12:03:40;10.02;;;9.02;;
12076;SDS011;12420;42.676;23.262;2023-06-22T12:06:08;10.32;;;9.43;;
12076;SDS011;12420;42.676;23.262;2023-06-22T12:08:35;11.25;;;10.02;;
12076;SDS011;12420;42.676;23.262;2023-06-22T12:11:02;9.98;;;8.98;;
12076;SDS011;12420;42.676;23.262;2023-06-22T12:13:30;9.32;;;8.63;;
12076;SDS011;12420;42.676;23.262;2023-06-22T12:15:57;9.65;;;8.80;;
12076;SDS011;12420;42.676;23.262;2023-06-22T12:18:24;9.50;;;8.70;;
12076;SDS011;12420;42.676;23.262;2023-06-22T12:20:51;11.23;;;9.20;;
12076;SDS011;12420;42.676;23.262;2023-06-22T12:23:18;11.10;;;9.07;;
12076;SDS011;12420;42.676;23.262;2023-06-22T12:25:46;9.88;;;8.88;;
12076;SDS011;12420;42.676;23.262;2023-06-22T12:28:13;10.80;;;9.32;;
12076;SDS011;12420;42.676;23.262;2023-06-22T12:30:41;11.55;;;9.70;;
12076;SDS011;12420;42.676;23.262;2023-06-22T12:33:11;12.60;;;10.13;;
12076;SDS011;12420;42.676;23.262;2023-06-22T12:35:38;14.82;;;9.48;;
12076;SDS011;12420;42.676;23.262;2023-06-22T12:38:05;11.65;;;8.88;;
12076;SDS011;12420;42.676;23.262;2023-06-22T12:40:33;12.45;;;8.30;;
12076;SDS011;12420;42.676;23.262;2023-06-22T12:43:00;9.63;;;8.15;;
12076;SDS011;12420;42.676;23.262;2023-06-22T12:45:27;14.27;;;8.13;;
12076;SDS011;12420;42.676;23.262;2023-06-22T12:47:59;11.18;;;8.23;;
12076;SDS011;12420;42.676;23.262;2023-06-22T12:50:26;10.18;;;7.15;;
12076;SDS011;12420;42.676;23.262;2023-06-22T12:52:53;16.15;;;7.65;;
12076;SDS011;12420;42.676;23.262;2023-06-22T12:55:20;13.27;;;8.45;;
12076;SDS011;12420;42.676;23.262;2023-06-22T12:57:47;10.20;;;7.90;;
12076;SDS011;12420;42.676;23.262;2023-06-22T13:00:14;10.80;;;7.53;;
12076;SDS011;12420;42.676;23.262;2023-06-22T13:02:41;9.23;;;7.20;;
12076;SDS011;12420;42.676;23.262;2023-06-22T13:05:10;8.00;;;6.88;;
12076;SDS011;12420;42.676;23.262;2023-06-22T13:07:36;8.32;;;7.43;;
12076;SDS011;12420;42.676;23.262;2023-06-22T13:10:04;10.07;;;8.23;;
12076;SDS011;12420;42.676;23.262;2023-06-22T13:12:31;9.35;;;7.75;;
12076;SDS011;12420;42.676;23.262;2023-06-22T13:14:58;8.55;;;7.82;;
12076;SDS011;12420;42.676;23.262;2023-06-22T13:17:24;9.23;;;7.25;;
12076;SDS011;12420;42.676;23.262;2023-06-22T13:19:52;7.70;;;6.70;;
12076;SDS011;12420;42.676;23.262;2023-06-22T13:22:27;10.30;;;7.65;;
12076;SDS011;12420;42.676;23.262;2023-06-22T13:24:56;9.50;;;8.05;;
12076;SDS011;12420;42.676;23.262;2023-06-22T13:27:23;9.43;;;7.97;;
12076;SDS011;12420;42.676;23.262;2023-06-22T13:29:50;11.05;;;7.72;;
12076;SDS011;12420;42.676;23.262;2023-06-22T13:32:17;8.55;;;7.70;;
12076;SDS011;12420;42.676;23.262;2023-06-22T13:34:44;10.32;;;7.85;;
12076;SDS011;12420;42.676;23.262;2023-06-22T13:37:11;8.50;;;7.68;;
12076;SDS011;12420;42.676;23.262;2023-06-22T13:39:39;8.93;;;8.00;;
12076;SDS011;12420;42.676;23.262;2023-06-22T13:42:06;11.27;;;7.63;;
12076;SDS011;12420;42.676;23.262;2023-06-22T13:44:34;9.80;;;8.05;;
12076;SDS011;12420;42.676;23.262;2023-06-22T13:47:00;10.43;;;7.85;;
12076;SDS011;12420;42.676;23.262;2023-06-22T13:49:27;10.02;;;8.50;;
12076;SDS011;12420;42.676;23.262;2023-06-22T13:51:54;9.05;;;7.75;;
12076;SDS011;12420;42.676;23.262;2023-06-22T13:54:21;11.57;;;7.60;;
12076;SDS011;12420;42.676;23.262;2023-06-22T13:56:49;11.02;;;8.57;;
12076;SDS011;12420;42.676;23.262;2023-06-22T13:59:16;10.38;;;8.52;;
12076;SDS011;12420;42.676;23.262;2023-06-22T14:01:44;11.27;;;10.18;;
12076;SDS011;12420;42.676;23.262;2023-06-22T14:04:11;11.95;;;10.02;;
12076;SDS011;12420;42.676;23.262;2023-06-22T14:06:38;10.80;;;9.75;;
12076;SDS011;12420;42.676;23.262;2023-06-22T14:09:05;11.20;;;9.98;;
12076;SDS011;12420;42.676;23.262;2023-06-22T14:11:32;11.65;;;10.50;;
12076;SDS011;12420;42.676;23.262;2023-06-22T14:14:01;12.40;;;9.80;;
12076;SDS011;12420;42.676;23.262;2023-06-22T14:16:28;13.95;;;10.73;;
12076;SDS011;12420;42.676;23.262;2023-06-22T14:18:55;12.98;;;9.98;;
12076;SDS011;12420;42.676;23.262;2023-06-22T14:21:21;11.75;;;9.90;;
12076;SDS011;12420;42.676;23.262;2023-06-22T14:23:48;10.52;;;9.32;;
12076;SDS011;12420;42.676;23.262;2023-06-22T14:26:15;10.35;;;9.35;;
12076;SDS011;12420;42.676;23.262;2023-06-22T14:28:43;10.20;;;9.20;;
12076;SDS011;12420;42.676;23.262;2023-06-22T14:31:15;10.73;;;9.55;;
12076;SDS011;12420;42.676;23.262;2023-06-22T14:33:44;11.30;;;9.85;;
12076;SDS011;12420;42.676;23.262;2023-06-22T14:36:13;11.68;;;10.20;;
12076;SDS011;12420;42.676;23.262;2023-06-22T14:38:40;11.20;;;9.45;;